Time;durP1;ratioP1;P1;durP2;ratioP2;P2;SDS_P1;SDS_P2;PMS_P1;PMS_P2;Temp;Humidity;BMP_temperature;BMP_pressure;BME280_temperature;BME280_humidity;BME280_pressure;Samples;Min_cycle;Max_cycle;Signal;HPM_P1;HPM_P2
2022/05/06 00:04:29;;;;;;;5.22;2.10;;;10.70;99.90;;;;;;12423121;28;20079;-37
2022/05/06 00:10:31;;;;;;;5.05;2.40;;;10.90;99.90;;;;;;12423446;28;20414;-38
2022/05/06 00:16:33;;;;;;;4.70;2.30;;;10.90;99.90;;;;;;12425579;28;20100;-38
2022/05/06 00:22:35;;;;;;;3.92;2.33;;;10.90;99.90;;;;;;12421307;28;20046;-39
2022/05/06 00:28:37;;;;;;;6.45;2.17;;;10.90;99.90;;;;;;12424440;28;20822;-38
2022/05/06 00:34:40;;;;;;;3.67;2.33;;;10.70;99.90;;;;;;12425657;28;20085;-37
2022/05/06 00:40:41;;;;;;;5.93;2.20;;;10.60;99.90;;;;;;12426321;28;20442;-39
2022/05/06 00:46:44;;;;;;;4.72;2.50;;;10.50;99.90;;;;;;12426013;28;20058;-38
2022/05/06 00:52:46;;;;;;;6.97;2.83;;;10.50;99.90;;;;;;12423855;28;20494;-38
2022/05/06 00:58:48;;;;;;;7.47;2.70;;;10.60;99.90;;;;;;12434665;28;20054;-38
2022/05/06 01:04:51;;;;;;;6.45;2.40;;;10.50;99.90;;;;;;12437067;28;20056;-38
2022/05/06 01:10:53;;;;;;;5.63;2.70;;;10.60;99.90;;;;;;12428206;28;20042;-39
2022/05/06 01:16:55;;;;;;;5.70;2.70;;;10.60;99.90;;;;;;12429803;28;20057;-38
2022/05/06 01:22:58;;;;;;;4.60;2.67;;;10.50;99.90;;;;;;12429755;28;20065;-39
2022/05/06 01:29:00;;;;;;;3.50;2.47;;;10.50;99.90;;;;;;12431189;28;20056;-37
2022/05/06 01:35:03;;;;;;;5.75;2.50;;;10.40;99.90;;;;;;12429278;28;20500;-37
2022/05/06 01:41:13;;;;;;;5.55;2.60;;;10.30;99.90;;;;;;12429427;28;20140;-36
2022/05/06 01:47:19;;;;;;;5.30;2.80;;;10.10;99.90;;;;;;12430033;28;20491;-37
2022/05/06 01:53:21;;;;;;;3.65;2.40;;;;;;;;;;12430955;28;20042;-41
2022/05/06 01:59:23;;;;;;;5.13;2.78;;;9.90;99.90;;;;;;12431116;28;20057;-37
2022/05/06 02:05:25;;;;;;;4.97;3.03;;;10.00;99.90;;;;;;12425363;28;20050;-39
2022/05/06 02:11:27;;;;;;;4.57;2.90;;;10.00;99.90;;;;;;12428986;28;20049;-38
2022/05/06 02:17:29;;;;;;;5.45;2.95;;;9.90;99.90;;;;;;12432150;28;20108;-37
2022/05/06 02:23:33;;;;;;;4.68;2.90;;;9.80;99.90;;;;;;12427023;28;20084;-37
2022/05/06 02:29:35;;;;;;;5.05;2.88;;;9.80;99.90;;;;;;12428436;28;20124;-38
2022/05/06 02:35:37;;;;;;;6.78;2.97;;;9.70;99.90;;;;;;12425944;28;20054;-37
2022/05/06 02:41:39;;;;;;;7.82;2.95;;;9.80;99.90;;;;;;12429766;28;20659;-37
2022/05/06 02:47:41;;;;;;;4.20;2.60;;;9.80;99.90;;;;;;12431144;28;20069;-37
2022/05/06 02:53:44;;;;;;;5.32;2.88;;;9.80;99.90;;;;;;12429559;28;20065;-38
2022/05/06 02:59:46;;;;;;;6.35;2.80;;;9.80;99.90;;;;;;12428592;28;20053;-39
2022/05/06 03:05:49;;;;;;;5.80;3.30;;;9.80;99.90;;;;;;12424590;28;20086;-37
2022/05/06 03:11:52;;;;;;;4.53;2.50;;;9.70;99.90;;;;;;12428462;28;20049;-38
2022/05/06 03:17:56;;;;;;;6.85;2.78;;;9.40;99.90;;;;;;12428331;28;20060;-39
2022/05/06 03:24:02;;;;;;;4.07;2.22;;;9.30;99.90;;;;;;12425695;28;20045;-39
2022/05/06 03:30:05;;;;;;;4.68;2.83;;;9.30;99.90;;;;;;12426502;28;20455;-37
2022/05/06 03:36:09;;;;;;;6.03;2.90;;;9.20;99.90;;;;;;12424488;28;20160;-39
2022/05/06 03:42:14;;;;;;;6.80;2.80;;;9.20;99.90;;;;;;12423490;28;20133;-37
2022/05/06 03:48:16;;;;;;;5.63;3.38;;;9.20;99.90;;;;;;12422834;28;20065;-37
2022/05/06 03:54:19;;;;;;;5.95;3.00;;;9.30;99.90;;;;;;12423412;28;20054;-38
2022/05/06 04:00:21;;;;;;;5.20;3.10;;;9.30;99.90;;;;;;12423169;28;20054;-38
2022/05/06 04:06:23;;;;;;;5.10;3.28;;;9.30;99.90;;;;;;12422992;28;20038;-38
2022/05/06 04:12:25;;;;;;;4.90;2.90;;;9.30;99.90;;;;;;12424887;28;20522;-37
2022/05/06 04:18:28;;;;;;;4.97;3.28;;;9.40;99.90;;;;;;12425482;28;20096;-37
2022/05/06 04:24:29;;;;;;;6.00;3.17;;;9.40;99.90;;;;;;12424222;28;20050;-38
2022/05/06 04:30:31;;;;;;;5.10;3.20;;;9.40;99.90;;;;;;12427285;28;20123;-39
2022/05/06 04:36:33;;;;;;;5.82;3.35;;;9.30;99.90;;;;;;12433008;28;20450;-38
2022/05/06 04:42:35;;;;;;;5.65;3.10;;;9.40;99.90;;;;;;12432368;28;20081;-37
2022/05/06 04:48:38;;;;;;;5.25;3.55;;;9.40;99.90;;;;;;12428832;28;20556;-38
2022/05/06 04:54:39;;;;;;;8.45;3.30;;;9.50;99.90;;;;;;12430962;28;20137;-37
2022/05/06 05:00:42;;;;;;;8.20;3.40;;;9.50;99.90;;;;;;12430604;28;20052;-37
2022/05/06 05:06:45;;;;;;;4.75;3.20;;;10.10;99.90;;;;;;12432798;28;20049;-37
2022/05/06 05:12:47;;;;;;;5.20;3.42;;;10.20;99.90;;;;;;12429991;28;20096;-39
2022/05/06 05:18:49;;;;;;;8.18;3.72;;;10.20;99.90;;;;;;12408764;28;20054;-38
2022/05/06 05:24:51;;;;;;;6.50;3.67;;;10.20;99.90;;;;;;12431092;28;20081;-38
2022/05/06 05:30:53;;;;;;;7.85;3.42;;;10.20;99.90;;;;;;12431357;28;20049;-40
2022/05/06 05:36:55;;;;;;;4.15;3.28;;;10.30;99.90;;;;;;12428588;28;20152;-38
2022/05/06 05:42:57;;;;;;;5.43;3.95;;;10.70;99.90;;;;;;12429981;28;20045;-40
2022/05/06 05:48:59;;;;;;;6.55;4.30;;;10.90;99.90;;;;;;12430132;28;20049;-38
2022/05/06 05:55:02;;;;;;;6.72;3.90;;;11.00;99.90;;;;;;12430503;28;20124;-39
2022/05/06 06:01:08;;;;;;;6.07;4.30;;;11.20;99.90;;;;;;12428581;28;20100;-37
2022/05/06 06:07:10;;;;;;;8.38;4.32;;;11.20;99.90;;;;;;12433596;28;20501;-38
2022/05/06 06:13:15;;;;;;;6.07;3.92;;;11.40;99.90;;;;;;12429525;28;20054;-38
2022/05/06 06:19:19;;;;;;;7.22;4.32;;;11.50;99.90;;;;;;12429012;28;20057;-38
2022/05/06 06:25:21;;;;;;;6.05;4.00;;;11.50;99.90;;;;;;12427251;28;20038;-38
2022/05/06 06:31:24;;;;;;;7.68;4.70;;;11.60;99.90;;;;;;12429601;28;20081;-37
2022/05/06 06:37:27;;;;;;;7.47;4.43;;;11.80;99.90;;;;;;12433143;28;20558;-38
2022/05/06 06:43:30;;;;;;;7.97;4.65;;;12.00;99.90;;;;;;12432334;28;20058;-39
2022/05/06 06:49:33;;;;;;;10.90;4.45;;;12.10;99.90;;;;;;12431569;28;20081;-39
2022/05/06 06:55:35;;;;;;;6.15;4.32;;;12.30;99.90;;;;;;12428608;28;20413;-46
2022/05/06 07:01:37;;;;;;;8.00;4.30;;;12.30;99.90;;;;;;12431705;28;20506;-38
2022/05/06 07:14:26;;;;;;;8.35;4.90;;;12.60;99.90;;;;;;12427325;28;20502;-38
2022/05/06 07:20:28;;;;;;;7.95;4.80;;;12.70;99.90;;;;;;12425492;28;20074;-38
2022/05/06 07:26:30;;;;;;;7.25;4.55;;;12.90;99.90;;;;;;12430483;28;20835;-39
2022/05/06 07:32:33;;;;;;;9.23;5.28;;;13.10;99.90;;;;;;12432319;28;20049;-40
2022/05/06 07:38:35;;;;;;;9.20;5.10;;;13.30;99.90;;;;;;12429579;28;20429;-40
2022/05/06 07:44:38;;;;;;;5.85;3.92;;;13.40;99.90;;;;;;12429373;28;20123;-40
2022/05/06 07:50:46;;;;;;;8.88;4.70;;;13.60;99.90;;;;;;12425906;28;20049;-40
2022/05/06 07:56:49;;;;;;;7.35;3.60;;;13.90;99.90;;;;;;12421476;28;20413;-39
2022/05/06 08:09:12;;;;;;;6.18;2.30;;;14.50;99.90;;;;;;12430989;28;20137;-37
2022/05/06 08:15:14;;;;;;;9.15;2.60;;;14.80;99.90;;;;;;12430241;28;20053;-38
2022/05/06 08:21:16;;;;;;;3.70;2.05;;;15.40;99.90;;;;;;12433209;28;20145;-38
2022/05/06 08:27:18;;;;;;;5.35;3.03;;;15.50;99.90;;;;;;12428369;28;20478;-40
2022/05/06 08:33:21;;;;;;;9.90;3.55;;;15.40;99.90;;;;;;12430462;28;20137;-40
2022/05/06 08:39:23;;;;;;;9.53;3.80;;;15.60;99.90;;;;;;12430812;28;20050;-40
2022/05/06 08:51:48;;;;;;;10.00;4.63;;;15.80;99.90;;;;;;12432403;28;20056;-41
2022/05/06 08:57:50;;;;;;;8.90;4.80;;;16.10;99.90;;;;;;12435896;28;20145;-38
2022/05/06 09:03:53;;;;;;;7.60;4.70;;;16.50;99.90;;;;;;12433928;28;20077;-39
2022/05/06 09:10:14;;;;;;;9.87;5.00;;;16.80;99.90;;;;;;12432375;28;20149;-39
2022/05/06 09:16:42;;;;;;;13.15;5.30;;;16.70;99.90;;;;;;12423909;28;20111;-39
2022/05/06 09:22:44;;;;;;;10.15;6.32;;;17.00;99.90;;;;;;12406606;28;20077;-39
2022/05/06 09:28:46;;;;;;;9.35;6.13;;;17.20;99.90;;;;;;12377630;28;20507;-40
2022/05/06 09:34:51;;;;;;;10.15;6.13;;;17.60;99.90;;;;;;12376740;28;20502;-37
2022/05/06 09:40:53;;;;;;;10.38;6.43;;;17.70;99.90;;;;;;12383357;28;20062;-38
2022/05/06 09:47:15;;;;;;;11.05;6.53;;;17.80;99.90;;;;;;12358723;28;20058;-39
2022/05/06 09:53:19;;;;;;;8.85;6.18;;;18.10;99.90;;;;;;12376673;28;20549;-39
2022/05/06 09:59:23;;;;;;;;;;;18.10;99.90;;;;;;12381237;28;20054;-38
2022/05/06 10:05:27;;;;;;;10.00;6.32;;;18.40;99.90;;;;;;12375615;28;19949;-38
2022/05/06 10:11:30;;;;;;;14.43;5.90;;;17.70;99.90;;;;;;12374770;28;20082;-39
2022/05/06 10:17:55;;;;;;;11.85;6.38;;;17.80;99.90;;;;;;12382397;28;20416;-39
2022/05/06 10:23:57;;;;;;;11.63;6.82;;;18.50;99.90;;;;;;12367440;28;20058;-37
2022/05/06 10:36:48;;;;;;;10.40;5.07;;;19.40;99.90;;;;;;12372045;28;20046;-38
2022/05/06 10:42:51;;;;;;;7.00;4.88;;;19.40;99.90;;;;;;12373849;28;20077;-38
2022/05/06 10:48:53;;;;;;;8.73;4.60;;;19.60;99.90;;;;;;12356207;28;20423;-39
2022/05/06 10:54:58;;;;;;;7.72;4.25;;;19.60;99.90;;;;;;12370522;28;20062;-40
2022/05/06 11:01:01;;;;;;;7.47;4.38;;;19.90;99.90;;;;;;12374216;28;20046;-40
2022/05/06 11:07:13;;;;;;;10.35;4.75;;;20.10;99.90;;;;;;12374393;28;20054;-38
2022/05/06 11:13:17;;;;;;;8.27;4.47;;;20.30;99.90;;;;;;12375554;28;20085;-40
2022/05/06 11:19:34;;;;;;;9.00;3.90;;;19.50;99.90;;;;;;12374299;28;20462;-38
2022/05/06 11:25:46;;;;;;;12.93;4.20;;;19.90;99.90;;;;;;12375400;28;20088;-39
2022/05/06 11:31:48;;;;;;;11.05;3.90;;;20.70;99.90;;;;;;12376180;28;20510;-40
2022/05/06 11:37:51;;;;;;;7.82;3.95;;;20.30;99.90;;;;;;12372705;28;20065;-38
2022/05/06 11:44:03;;;;;;;6.47;3.88;;;20.60;99.90;;;;;;12370824;28;20110;-40
2022/05/06 11:50:05;;;;;;;7.50;3.90;;;20.60;99.90;;;;;;12374974;28;20109;-37
2022/05/06 11:56:08;;;;;;;8.32;4.30;;;20.60;99.90;;;;;;12377967;28;20208;-39
2022/05/06 12:02:11;;;;;;;9.07;4.70;;;20.30;99.90;;;;;;12374279;28;20058;-39
2022/05/06 12:08:25;;;;;;;8.15;4.55;;;19.90;99.90;;;;;;12374120;28;20574;-39
2022/05/06 12:14:27;;;;;;;8.77;5.10;;;20.20;99.90;;;;;;12374106;28;20070;-40
2022/05/06 12:20:35;;;;;;;6.85;4.45;;;20.60;99.90;;;;;;12370218;28;20070;-39
2022/05/06 12:26:38;;;;;;;7.35;4.63;;;20.80;99.90;;;;;;12376322;28;20503;-38
2022/05/06 12:32:40;;;;;;;7.30;4.20;;;20.30;99.90;;;;;;12372514;28;20038;-39
2022/05/06 12:38:42;;;;;;;7.25;4.65;;;19.80;99.90;;;;;;12373040;28;20065;-38
2022/05/06 12:44:45;;;;;;;10.07;5.45;;;19.20;99.90;;;;;;12370940;28;20054;-38
2022/05/06 12:50:47;;;;;;;10.27;6.17;;;18.70;99.90;;;;;;12376238;28;20149;-40
2022/05/06 12:56:49;;;;;;;9.68;5.63;;;18.40;99.90;;;;;;12384417;28;20042;-38
2022/05/06 13:02:53;;;;;;;12.32;6.53;;;18.40;99.90;;;;;;12382242;28;20108;-39
2022/05/06 13:08:55;;;;;;;10.60;5.70;;;18.40;99.90;;;;;;12398329;28;20042;-38
2022/05/06 13:14:57;;;;;;;14.85;6.60;;;18.70;99.90;;;;;;12385318;28;20043;-37
2022/05/06 13:20:59;;;;;;;12.85;6.22;;;19.40;99.90;;;;;;12382585;28;20120;-40
2022/05/06 13:27:01;;;;;;;9.05;5.88;;;20.20;99.90;;;;;;12384683;28;20046;-38
2022/05/06 13:33:07;;;;;;;9.43;5.20;;;19.90;99.90;;;;;;12383821;28;20077;-38
2022/05/06 13:39:11;;;;;;;10.18;4.10;;;20.00;99.90;;;;;;12383539;28;20100;-39
2022/05/06 13:45:13;;;;;;;5.35;3.80;;;20.60;99.90;;;;;;12381341;28;20081;-45
2022/05/06 13:51:15;;;;;;;6.88;3.58;;;21.10;99.90;;;;;;12385276;28;20050;-38
2022/05/06 14:03:38;;;;;;;6.57;3.80;;;20.90;99.90;;;;;;12382416;28;20081;-38
2022/05/06 14:09:41;;;;;;;5.53;3.87;;;20.30;99.90;;;;;;12384085;28;20624;-38
2022/05/06 14:15:43;;;;;;;7.13;4.32;;;20.20;99.90;;;;;;12384071;28;20423;-38
2022/05/06 14:21:46;;;;;;;7.17;4.40;;;19.80;99.90;;;;;;12379208;28;20930;-40
2022/05/06 14:27:50;;;;;;;7.72;3.60;;;19.60;99.90;;;;;;12378798;28;20090;-38
2022/05/06 14:33:52;;;;;;;6.75;4.38;;;19.50;99.90;;;;;;12376286;28;20057;-40
2022/05/06 14:39:54;;;;;;;8.40;4.50;;;19.90;99.90;;;;;;12380076;28;20054;-40
2022/05/06 14:45:56;;;;;;;9.60;4.45;;;19.60;99.90;;;;;;12379502;28;20137;-41
2022/05/06 14:51:58;;;;;;;11.38;4.07;;;19.60;99.90;;;;;;12381222;28;20050;-40
2022/05/06 14:58:00;;;;;;;8.75;4.55;;;20.30;99.90;;;;;;12379956;28;20136;-37
2022/05/06 15:04:02;;;;;;;7.70;4.90;;;20.80;99.90;;;;;;12378052;28;20046;-39
2022/05/06 15:10:05;;;;;;;7.13;4.45;;;21.10;99.90;;;;;;12373713;28;20499;-39
2022/05/06 15:16:07;;;;;;;7.50;4.40;;;21.10;99.90;;;;;;12378835;28;20057;-38
2022/05/06 15:22:10;;;;;;;14.18;4.30;;;20.40;99.90;;;;;;12376869;28;20505;-39
2022/05/06 15:28:12;;;;;;;11.00;5.03;;;20.20;99.90;;;;;;12374645;28;20140;-38
2022/05/06 15:34:14;;;;;;;6.90;3.88;;;20.60;99.90;;;;;;12372317;28;20451;-38
2022/05/06 15:40:16;;;;;;;5.68;3.67;;;21.00;99.90;;;;;;12375862;28;20138;-37
2022/05/06 15:46:18;;;;;;;7.95;3.72;;;21.40;99.90;;;;;;12380045;28;20096;-41
2022/05/06 15:52:20;;;;;;;8.25;5.40;;;21.60;99.90;;;;;;12375787;28;20582;-40
2022/05/06 15:58:22;;;;;;;7.05;4.70;;;21.20;99.90;;;;;;12377213;28;20054;-40
2022/05/06 16:04:24;;;;;;;6.80;4.75;;;21.30;99.90;;;;;;12374608;28;20054;-38
2022/05/06 16:10:27;;;;;;;9.02;4.72;;;20.80;99.90;;;;;;12377888;28;20073;-39
2022/05/06 16:16:32;;;;;;;6.47;4.30;;;20.40;99.90;;;;;;12377089;28;20061;-38
2022/05/06 16:22:34;;;;;;;6.50;3.65;;;20.00;99.90;;;;;;12378890;28;20053;-38
2022/05/06 16:28:37;;;;;;;6.18;3.42;;;19.70;99.90;;;;;;12386228;28;20173;-38
2022/05/06 16:41:00;;;;;;;8.55;4.43;;;19.30;99.90;;;;;;12380840;28;20053;-40
2022/05/06 16:47:03;;;;;;;7.25;4.22;;;19.20;99.90;;;;;;12384395;28;20054;-40
2022/05/06 16:53:05;;;;;;;7.13;4.45;;;19.00;99.90;;;;;;12381883;28;20162;-38
2022/05/06 16:59:07;;;;;;;10.13;5.15;;;18.90;99.90;;;;;;12381473;28;20486;-36
2022/05/06 17:05:10;;;;;;;7.78;5.00;;;18.80;99.90;;;;;;12380836;28;20057;-39
2022/05/06 17:11:13;;;;;;;10.07;4.80;;;18.70;99.90;;;;;;12380759;28;20678;-37
2022/05/06 17:17:15;;;;;;;9.00;4.10;;;18.70;99.90;;;;;;12384121;28;20058;-38
2022/05/06 17:23:17;;;;;;;6.95;3.70;;;18.50;99.90;;;;;;12385638;28;20053;-40
2022/05/06 17:29:23;;;;;;;6.63;3.67;;;18.50;99.90;;;;;;12385686;28;20050;-40
2022/05/06 17:35:25;;;;;;;5.75;3.22;;;18.50;99.90;;;;;;12378638;28;20219;-38
2022/05/06 17:41:27;;;;;;;7.30;3.65;;;18.40;99.90;;;;;;12382488;28;20240;-40
2022/05/06 17:47:29;;;;;;;6.35;3.38;;;18.40;99.90;;;;;;12378233;28;20050;-39
2022/05/06 17:53:32;;;;;;;5.78;3.13;;;18.40;99.90;;;;;;12380073;28;20060;-38
2022/05/06 17:59:34;;;;;;;5.33;3.67;;;18.50;99.90;;;;;;12378844;28;20061;-37
2022/05/06 18:05:37;;;;;;;8.10;3.65;;;18.60;99.90;;;;;;12381192;28;20451;-37
2022/05/06 18:11:39;;;;;;;7.03;3.30;;;18.60;99.90;;;;;;12369746;28;20137;-38
2022/05/06 18:17:41;;;;;;;7.78;3.60;;;18.50;99.90;;;;;;12377913;28;20061;-38
2022/05/06 18:23:43;;;;;;;5.45;3.08;;;18.30;99.90;;;;;;12380956;28;20054;-38
2022/05/06 18:29:46;;;;;;;6.35;3.38;;;18.10;99.90;;;;;;12365401;28;20074;-40
2022/05/06 18:35:55;;;;;;;5.60;3.17;;;17.90;99.90;;;;;;12378747;28;20287;-38
2022/05/06 18:41:57;;;;;;;11.25;3.10;;;17.80;99.90;;;;;;12377817;28;20056;-37
2022/05/06 18:47:59;;;;;;;6.45;3.03;;;17.70;99.90;;;;;;12377906;28;20479;-37
2022/05/06 18:54:04;;;;;;;6.65;3.08;;;17.60;99.90;;;;;;12377186;28;20418;-38
2022/05/06 19:00:08;;;;;;;5.35;2.97;;;17.30;99.90;;;;;;12379562;28;20046;-39
2022/05/06 19:06:13;;;;;;;4.47;3.00;;;16.90;99.90;;;;;;12378518;28;20491;-38
2022/05/06 19:12:15;;;;;;;8.30;3.30;;;16.80;99.90;;;;;;12379827;28;20491;-38
2022/05/06 19:18:17;;;;;;;6.68;3.40;;;16.70;99.90;;;;;;12377937;28;20061;-38
2022/05/06 19:30:40;;;;;;;8.60;3.95;;;16.40;99.90;;;;;;12377908;28;20054;-38
2022/05/06 19:36:42;;;;;;;6.55;3.83;;;16.10;99.90;;;;;;12377072;28;20047;-37
2022/05/06 19:42:44;;;;;;;9.32;4.22;;;15.90;99.90;;;;;;12375760;28;20658;-39
2022/05/06 19:48:47;;;;;;;8.27;4.85;;;15.70;99.90;;;;;;12380066;28;20289;-38
2022/05/06 19:54:49;;;;;;;7.07;4.65;;;15.70;99.90;;;;;;12355216;28;20482;-37
2022/05/06 20:00:52;;;;;;;8.82;5.93;;;15.60;99.90;;;;;;12376115;28;20134;-37
2022/05/06 20:06:54;;;;;;;12.27;6.68;;;15.50;99.90;;;;;;12374655;28;20054;-37
2022/05/06 20:13:01;;;;;;;12.52;7.13;;;15.40;99.90;;;;;;12371258;28;20399;-39
2022/05/06 20:19:05;;;;;;;11.35;6.85;;;15.30;99.90;;;;;;12374224;28;20166;-38
2022/05/06 20:25:08;;;;;;;10.25;6.55;;;15.40;99.90;;;;;;12368695;28;20483;-38
2022/05/06 20:31:10;;;;;;;13.15;7.80;;;15.50;99.90;;;;;;12358609;28;20050;-40
2022/05/06 20:37:16;;;;;;;10.80;7.38;;;15.30;99.90;;;;;;12376567;28;20073;-37
2022/05/06 20:43:23;;;;;;;15.88;7.32;;;15.20;99.90;;;;;;12378153;28;20231;-37
2022/05/06 20:49:26;;;;;;;13.57;8.00;;;15.30;99.90;;;;;;12382928;28;20055;-37
2022/05/06 20:55:29;;;;;;;13.45;7.70;;;15.30;99.90;;;;;;12376033;28;20494;-38
2022/05/06 21:01:31;;;;;;;13.73;8.38;;;15.30;99.90;;;;;;12378972;28;20141;-40
2022/05/06 21:07:35;;;;;;;14.43;7.93;;;15.30;99.90;;;;;;12380576;28;20050;-44
2022/05/06 21:13:41;;;;;;;10.07;7.25;;;15.40;99.90;;;;;;12387829;28;20157;-37
2022/05/06 21:19:43;;;;;;;16.48;8.32;;;15.30;99.90;;;;;;12386300;28;20518;-39
2022/05/06 21:25:46;;;;;;;12.35;8.15;;;15.40;99.90;;;;;;12384184;28;20050;-38
2022/05/06 21:31:48;;;;;;;17.65;9.45;;;15.30;99.90;;;;;;12383392;28;20434;-40
2022/05/06 21:37:51;;;;;;;13.75;8.65;;;15.30;99.90;;;;;;12384435;28;20142;-38
2022/05/06 21:43:54;;;;;;;17.13;9.60;;;15.40;99.90;;;;;;12382882;28;20046;-39
2022/05/06 21:49:57;;;;;;;13.07;8.70;;;15.60;99.90;;;;;;12387658;28;20058;-37
2022/05/06 21:56:00;;;;;;;17.77;8.38;;;15.30;99.90;;;;;;12384517;28;20053;-37
2022/05/06 22:02:05;;;;;;;13.90;8.27;;;15.30;99.90;;;;;;12357051;28;20078;-39
2022/05/06 22:08:08;;;;;;;14.80;10.05;;;15.40;99.90;;;;;;12384658;28;20090;-37
2022/05/06 22:14:10;;;;;;;15.48;10.02;;;15.20;99.90;;;;;;12381216;28;20915;-38
2022/05/06 22:20:13;;;;;;;18.75;10.73;;;14.80;99.90;;;;;;12380674;28;20050;-39
2022/05/06 22:26:16;;;;;;;15.77;9.63;;;14.70;99.90;;;;;;12381778;28;20140;-39
2022/05/06 22:32:18;;;;;;;15.65;10.65;;;14.50;99.90;;;;;;12380752;28;20046;-39
2022/05/06 22:38:20;;;;;;;16.48;10.15;;;14.50;99.90;;;;;;12379642;28;20136;-38
2022/05/06 22:50:45;;;;;;;16.25;10.10;;;14.20;99.90;;;;;;12382024;28;20054;-37
2022/05/06 22:56:48;;;;;;;14.40;9.98;;;14.00;99.90;;;;;;12380937;28;20093;-38
2022/05/06 23:02:50;;;;;;;18.70;10.68;;;13.80;99.90;;;;;;12377783;28;20050;-39
2022/05/06 23:08:53;;;;;;;14.15;9.80;;;13.70;99.90;;;;;;12380240;28;20141;-38
2022/05/06 23:14:55;;;;;;;14.95;9.80;;;13.60;99.90;;;;;;12382393;28;20050;-37
2022/05/06 23:20:57;;;;;;;13.07;8.55;;;13.40;99.90;;;;;;12380697;28;20050;-37
2022/05/06 23:26:59;;;;;;;14.88;9.23;;;13.30;99.90;;;;;;12377479;28;20101;-39
2022/05/06 23:33:01;;;;;;;12.95;8.60;;;13.10;99.90;;;;;;12376525;28;20050;-37
2022/05/06 23:39:03;;;;;;;11.68;8.57;;;13.00;99.90;;;;;;12377344;28;20062;-38
2022/05/06 23:45:07;;;;;;;11.73;8.57;;;13.20;99.90;;;;;;12368830;28;20479;-39
2022/05/06 23:51:11;;;;;;;10.65;7.03;;;13.10;99.90;;;;;;12376130;28;20061;-37
2022/05/06 23:57:14;;;;;;;10.30;7.18;;;13.10;99.90;;;;;;12373344;28;20050;-38
